sensor_id;sensor_type;location;lat;lon;timestamp;P1;durP1;ratioP1;P2;durP2;ratioP2
56893;SDS011;43392;50.078;13.704;2022-07-04T00:01:11;12.15;;;6.35;;
56893;SDS011;43392;50.078;13.704;2022-07-04T00:03:38;10.00;;;4.80;;
56893;SDS011;43392;50.078;13.704;2022-07-04T00:06:05;10.23;;;4.10;;
56893;SDS011;43392;50.078;13.704;2022-07-04T00:08:31;6.55;;;3.42;;
56893;SDS011;43392;50.078;13.704;2022-07-04T00:10:58;9.02;;;2.88;;
56893;SDS011;43392;50.078;13.704;2022-07-04T00:13:26;6.53;;;3.10;;
56893;SDS011;43392;50.078;13.704;2022-07-04T00:15:53;7.45;;;2.92;;
56893;SDS011;43392;50.078;13.704;2022-07-04T00:18:19;7.25;;;2.20;;
56893;SDS011;43392;50.078;13.704;2022-07-04T00:20:46;4.07;;;1.98;;
56893;SDS011;43392;50.078;13.704;2022-07-04T00:23:13;3.47;;;1.88;;
56893;SDS011;43392;50.078;13.704;2022-07-04T00:25:40;3.75;;;1.90;;
56893;SDS011;43392;50.078;13.704;2022-07-04T00:28:06;5.25;;;1.90;;
56893;SDS011;43392;50.078;13.704;2022-07-04T00:30:34;4.75;;;2.10;;
56893;SDS011;43392;50.078;13.704;2022-07-04T00:33:01;3.55;;;2.08;;
56893;SDS011;43392;50.078;13.704;2022-07-04T00:35:28;3.55;;;2.17;;
56893;SDS011;43392;50.078;13.704;2022-07-04T00:37:54;3.97;;;1.70;;
56893;SDS011;43392;50.078;13.704;2022-07-04T00:40:21;3.60;;;2.00;;
56893;SDS011;43392;50.078;13.704;2022-07-04T00:42:47;5.32;;;1.77;;
56893;SDS011;43392;50.078;13.704;2022-07-04T00:45:14;4.13;;;1.90;;
56893;SDS011;43392;50.078;13.704;2022-07-04T00:47:42;3.33;;;2.08;;
56893;SDS011;43392;50.078;13.704;2022-07-04T00:50:08;2.42;;;1.80;;
56893;SDS011;43392;50.078;13.704;2022-07-04T00:52:35;3.45;;;2.00;;
56893;SDS011;43392;50.078;13.704;2022-07-04T00:55:02;8.20;;;2.60;;
56893;SDS011;43392;50.078;13.704;2022-07-04T00:57:30;6.90;;;3.83;;
56893;SDS011;43392;50.078;13.704;2022-07-04T00:59:56;9.60;;;3.08;;
56893;SDS011;43392;50.078;13.704;2022-07-04T01:02:23;8.43;;;2.85;;
56893;SDS011;43392;50.078;13.704;2022-07-04T01:04:51;9.02;;;3.42;;
56893;SDS011;43392;50.078;13.704;2022-07-04T01:07:17;6.97;;;3.08;;
56893;SDS011;43392;50.078;13.704;2022-07-04T01:09:44;7.82;;;3.88;;
56893;SDS011;43392;50.078;13.704;2022-07-04T01:12:23;9.00;;;3.70;;
56893;SDS011;43392;50.078;13.704;2022-07-04T01:14:50;8.18;;;3.55;;
56893;SDS011;43392;50.078;13.704;2022-07-04T01:17:17;8.23;;;4.32;;
56893;SDS011;43392;50.078;13.704;2022-07-04T01:19:44;9.23;;;4.43;;
56893;SDS011;43392;50.078;13.704;2022-07-04T01:22:11;8.55;;;4.45;;
56893;SDS011;43392;50.078;13.704;2022-07-04T01:24:38;8.10;;;4.80;;
56893;SDS011;43392;50.078;13.704;2022-07-04T01:27:05;8.48;;;4.30;;
56893;SDS011;43392;50.078;13.704;2022-07-04T01:29:32;8.82;;;4.50;;
56893;SDS011;43392;50.078;13.704;2022-07-04T01:32:02;8.75;;;4.57;;
56893;SDS011;43392;50.078;13.704;2022-07-04T01:34:30;9.65;;;4.47;;
56893;SDS011;43392;50.078;13.704;2022-07-04T01:36:58;7.20;;;3.75;;
56893;SDS011;43392;50.078;13.704;2022-07-04T01:39:26;7.38;;;4.32;;
56893;SDS011;43392;50.078;13.704;2022-07-04T01:41:53;9.77;;;4.55;;
56893;SDS011;43392;50.078;13.704;2022-07-04T01:44:20;7.85;;;4.18;;
56893;SDS011;43392;50.078;13.704;2022-07-04T01:46:47;7.55;;;4.00;;
56893;SDS011;43392;50.078;13.704;2022-07-04T01:49:13;8.27;;;4.50;;
56893;SDS011;43392;50.078;13.704;2022-07-04T01:51:43;8.05;;;4.60;;
56893;SDS011;43392;50.078;13.704;2022-07-04T01:54:10;7.85;;;4.30;;
56893;SDS011;43392;50.078;13.704;2022-07-04T01:56:38;9.35;;;4.90;;
56893;SDS011;43392;50.078;13.704;2022-07-04T01:59:05;9.15;;;4.70;;
56893;SDS011;43392;50.078;13.704;2022-07-04T02:01:32;10.60;;;5.60;;
56893;SDS011;43392;50.078;13.704;2022-07-04T02:03:59;8.50;;;4.68;;
56893;SDS011;43392;50.078;13.704;2022-07-04T02:06:26;8.23;;;4.82;;
56893;SDS011;43392;50.078;13.704;2022-07-04T02:08:53;7.57;;;4.57;;
56893;SDS011;43392;50.078;13.704;2022-07-04T02:11:38;7.78;;;4.38;;
56893;SDS011;43392;50.078;13.704;2022-07-04T02:14:23;5.57;;;3.42;;
56893;SDS011;43392;50.078;13.704;2022-07-04T02:16:50;7.28;;;3.58;;
56893;SDS011;43392;50.078;13.704;2022-07-04T02:19:17;5.43;;;3.00;;
56893;SDS011;43392;50.078;13.704;2022-07-04T02:21:43;5.25;;;2.80;;
56893;SDS011;43392;50.078;13.704;2022-07-04T02:24:10;7.65;;;3.47;;
56893;SDS011;43392;50.078;13.704;2022-07-04T02:26:38;6.53;;;3.38;;
56893;SDS011;43392;50.078;13.704;2022-07-04T02:29:05;5.75;;;3.42;;
56893;SDS011;43392;50.078;13.704;2022-07-04T02:31:31;6.90;;;3.60;;
56893;SDS011;43392;50.078;13.704;2022-07-04T02:33:58;8.38;;;2.95;;
56893;SDS011;43392;50.078;13.704;2022-07-04T02:36:25;5.15;;;3.22;;
56893;SDS011;43392;50.078;13.704;2022-07-04T02:38:51;5.45;;;3.00;;
56893;SDS011;43392;50.078;13.704;2022-07-04T02:41:18;7.22;;;3.28;;
56893;SDS011;43392;50.078;13.704;2022-07-04T02:43:46;6.68;;;3.03;;
56893;SDS011;43392;50.078;13.704;2022-07-04T02:46:12;4.18;;;2.60;;
56893;SDS011;43392;50.078;13.704;2022-07-04T02:48:39;6.05;;;2.80;;
56893;SDS011;43392;50.078;13.704;2022-07-04T02:51:05;4.22;;;2.65;;
56893;SDS011;43392;50.078;13.704;2022-07-04T02:53:32;4.95;;;2.97;;
56893;SDS011;43392;50.078;13.704;2022-07-04T02:55:58;6.20;;;2.60;;
56893;SDS011;43392;50.078;13.704;2022-07-04T02:58:28;4.75;;;2.92;;
56893;SDS011;43392;50.078;13.704;2022-07-04T03:00:56;6.78;;;2.85;;
56893;SDS011;43392;50.078;13.704;2022-07-04T03:03:23;8.98;;;3.15;;
56893;SDS011;43392;50.078;13.704;2022-07-04T03:05:50;10.30;;;3.40;;
56893;SDS011;43392;50.078;13.704;2022-07-04T03:08:16;5.55;;;3.38;;
56893;SDS011;43392;50.078;13.704;2022-07-04T03:10:43;6.60;;;3.30;;
56893;SDS011;43392;50.078;13.704;2022-07-04T03:13:10;6.40;;;3.33;;
56893;SDS011;43392;50.078;13.704;2022-07-04T03:15:36;8.55;;;3.42;;
56893;SDS011;43392;50.078;13.704;2022-07-04T03:18:04;5.90;;;3.42;;
56893;SDS011;43392;50.078;13.704;2022-07-04T03:20:31;7.63;;;4.00;;
56893;SDS011;43392;50.078;13.704;2022-07-04T03:22:58;7.47;;;3.47;;
56893;SDS011;43392;50.078;13.704;2022-07-04T03:25:24;6.18;;;3.80;;
56893;SDS011;43392;50.078;13.704;2022-07-04T03:27:51;7.93;;;3.25;;
56893;SDS011;43392;50.078;13.704;2022-07-04T03:30:18;6.05;;;3.63;;
56893;SDS011;43392;50.078;13.704;2022-07-04T03:32:45;8.77;;;3.80;;
56893;SDS011;43392;50.078;13.704;2022-07-04T03:35:13;8.02;;;3.42;;
56893;SDS011;43392;50.078;13.704;2022-07-04T03:37:39;6.68;;;3.10;;
56893;SDS011;43392;50.078;13.704;2022-07-04T03:40:06;6.13;;;3.53;;
56893;SDS011;43392;50.078;13.704;2022-07-04T03:42:34;10.10;;;3.53;;
56893;SDS011;43392;50.078;13.704;2022-07-04T03:45:01;6.28;;;3.38;;
56893;SDS011;43392;50.078;13.704;2022-07-04T03:47:27;9.20;;;3.58;;
56893;SDS011;43392;50.078;13.704;2022-07-04T03:49:54;6.38;;;3.63;;
56893;SDS011;43392;50.078;13.704;2022-07-04T03:52:22;10.38;;;4.38;;
56893;SDS011;43392;50.078;13.704;2022-07-04T03:54:48;6.82;;;3.60;;
56893;SDS011;43392;50.078;13.704;2022-07-04T03:57:15;7.07;;;3.85;;
56893;SDS011;43392;50.078;13.704;2022-07-04T03:59:42;7.45;;;3.60;;
56893;SDS011;43392;50.078;13.704;2022-07-04T04:02:09;9.35;;;4.22;;
56893;SDS011;43392;50.078;13.704;2022-07-04T04:04:36;8.30;;;3.90;;
56893;SDS011;43392;50.078;13.704;2022-07-04T04:07:21;7.07;;;3.80;;
56893;SDS011;43392;50.078;13.704;2022-07-04T04:09:48;6.75;;;3.85;;
56893;SDS011;43392;50.078;13.704;2022-07-04T04:12:15;8.18;;;4.28;;
56893;SDS011;43392;50.078;13.704;2022-07-04T04:14:41;6.45;;;3.38;;
56893;SDS011;43392;50.078;13.704;2022-07-04T04:17:08;5.70;;;3.60;;
56893;SDS011;43392;50.078;13.704;2022-07-04T04:19:35;8.93;;;3.50;;
56893;SDS011;43392;50.078;13.704;2022-07-04T04:22:01;7.00;;;3.80;;
56893;SDS011;43392;50.078;13.704;2022-07-04T04:24:30;5.70;;;3.42;;
56893;SDS011;43392;50.078;13.704;2022-07-04T04:26:57;6.85;;;3.42;;
56893;SDS011;43392;50.078;13.704;2022-07-04T04:29:23;6.38;;;3.50;;
56893;SDS011;43392;50.078;13.704;2022-07-04T04:31:50;7.95;;;3.65;;
56893;SDS011;43392;50.078;13.704;2022-07-04T04:34:16;6.07;;;3.25;;
56893;SDS011;43392;50.078;13.704;2022-07-04T04:36:43;7.60;;;3.33;;
56893;SDS011;43392;50.078;13.704;2022-07-04T04:39:10;7.05;;;3.40;;
56893;SDS011;43392;50.078;13.704;2022-07-04T04:41:38;5.95;;;3.40;;
56893;SDS011;43392;50.078;13.704;2022-07-04T04:44:04;7.00;;;3.25;;
56893;SDS011;43392;50.078;13.704;2022-07-04T04:46:31;7.35;;;3.40;;
56893;SDS011;43392;50.078;13.704;2022-07-04T04:48:58;6.40;;;3.50;;
56893;SDS011;43392;50.078;13.704;2022-07-04T04:51:24;6.38;;;3.33;;
56893;SDS011;43392;50.078;13.704;2022-07-04T04:53:51;5.15;;;3.30;;
56893;SDS011;43392;50.078;13.704;2022-07-04T04:56:18;7.70;;;3.30;;
56893;SDS011;43392;50.078;13.704;2022-07-04T04:58:46;7.75;;;4.05;;
56893;SDS011;43392;50.078;13.704;2022-07-04T05:01:12;6.00;;;3.30;;
56893;SDS011;43392;50.078;13.704;2022-07-04T05:03:39;4.85;;;2.80;;
56893;SDS011;43392;50.078;13.704;2022-07-04T05:06:06;8.50;;;3.20;;
56893;SDS011;43392;50.078;13.704;2022-07-04T05:08:33;5.15;;;3.00;;
56893;SDS011;43392;50.078;13.704;2022-07-04T05:11:00;5.22;;;3.40;;
56893;SDS011;43392;50.078;13.704;2022-07-04T05:13:26;5.03;;;2.83;;
56893;SDS011;43392;50.078;13.704;2022-07-04T05:15:54;4.93;;;2.78;;
56893;SDS011;43392;50.078;13.704;2022-07-04T05:18:21;5.93;;;2.78;;
56893;SDS011;43392;50.078;13.704;2022-07-04T05:20:48;8.23;;;2.83;;
56893;SDS011;43392;50.078;13.704;2022-07-04T05:23:14;4.10;;;2.42;;
56893;SDS011;43392;50.078;13.704;2022-07-04T05:25:41;4.53;;;3.00;;
56893;SDS011;43392;50.078;13.704;2022-07-04T05:28:07;7.20;;;3.03;;
56893;SDS011;43392;50.078;13.704;2022-07-04T05:30:34;3.75;;;2.55;;
56893;SDS011;43392;50.078;13.704;2022-07-04T05:33:02;7.20;;;2.90;;
56893;SDS011;43392;50.078;13.704;2022-07-04T05:35:28;5.38;;;3.00;;
56893;SDS011;43392;50.078;13.704;2022-07-04T05:37:56;5.10;;;2.65;;
56893;SDS011;43392;50.078;13.704;2022-07-04T05:40:23;6.90;;;3.10;;
56893;SDS011;43392;50.078;13.704;2022-07-04T05:42:50;8.10;;;3.10;;
56893;SDS011;43392;50.078;13.704;2022-07-04T05:45:16;7.38;;;2.88;;
56893;SDS011;43392;50.078;13.704;2022-07-04T05:47:43;6.25;;;2.83;;
56893;SDS011;43392;50.078;13.704;2022-07-04T05:50:11;6.40;;;3.15;;
56893;SDS011;43392;50.078;13.704;2022-07-04T05:52:38;5.88;;;3.13;;
56893;SDS011;43392;50.078;13.704;2022-07-04T05:55:05;8.35;;;3.03;;
56893;SDS011;43392;50.078;13.704;2022-07-04T05:57:32;7.40;;;3.47;;
56893;SDS011;43392;50.078;13.704;2022-07-04T05:59:59;7.25;;;2.85;;
56893;SDS011;43392;50.078;13.704;2022-07-04T06:02:26;7.93;;;3.22;;
56893;SDS011;43392;50.078;13.704;2022-07-04T06:04:52;4.82;;;2.70;;
56893;SDS011;43392;50.078;13.704;2022-07-04T06:07:20;13.73;;;3.33;;
56893;SDS011;43392;50.078;13.704;2022-07-04T06:09:47;5.85;;;2.78;;
56893;SDS011;43392;50.078;13.704;2022-07-04T06:12:13;6.60;;;3.03;;
56893;SDS011;43392;50.078;13.704;2022-07-04T06:14:40;9.00;;;3.13;;
56893;SDS011;43392;50.078;13.704;2022-07-04T06:17:07;5.38;;;2.97;;
56893;SDS011;43392;50.078;13.704;2022-07-04T06:19:33;7.20;;;2.78;;
56893;SDS011;43392;50.078;13.704;2022-07-04T06:22:00;6.70;;;2.90;;
56893;SDS011;43392;50.078;13.704;2022-07-04T06:24:28;5.43;;;2.55;;
56893;SDS011;43392;50.078;13.704;2022-07-04T06:26:54;7.60;;;3.20;;
56893;SDS011;43392;50.078;13.704;2022-07-04T06:29:21;5.07;;;2.40;;
56893;SDS011;43392;50.078;13.704;2022-07-04T06:31:48;5.47;;;2.85;;
56893;SDS011;43392;50.078;13.704;2022-07-04T06:34:14;4.95;;;2.47;;
56893;SDS011;43392;50.078;13.704;2022-07-04T06:36:58;5.45;;;2.55;;
56893;SDS011;43392;50.078;13.704;2022-07-04T06:39:25;4.95;;;2.72;;
56893;SDS011;43392;50.078;13.704;2022-07-04T06:41:53;4.38;;;2.53;;
56893;SDS011;43392;50.078;13.704;2022-07-04T06:44:19;5.43;;;2.55;;
56893;SDS011;43392;50.078;13.704;2022-07-04T06:46:46;4.75;;;2.50;;
56893;SDS011;43392;50.078;13.704;2022-07-04T06:49:12;5.65;;;2.50;;
56893;SDS011;43392;50.078;13.704;2022-07-04T06:51:39;5.03;;;2.72;;
56893;SDS011;43392;50.078;13.704;2022-07-04T06:54:06;6.63;;;2.53;;
56893;SDS011;43392;50.078;13.704;2022-07-04T06:56:32;5.10;;;2.22;;
56893;SDS011;43392;50.078;13.704;2022-07-04T06:59:00;4.47;;;2.60;;
56893;SDS011;43392;50.078;13.704;2022-07-04T07:01:28;5.07;;;2.80;;
56893;SDS011;43392;50.078;13.704;2022-07-04T07:03:54;4.78;;;2.92;;
56893;SDS011;43392;50.078;13.704;2022-07-04T07:06:21;5.70;;;3.20;;
56893;SDS011;43392;50.078;13.704;2022-07-04T07:08:48;3.88;;;2.53;;
56893;SDS011;43392;50.078;13.704;2022-07-04T07:11:15;6.05;;;2.80;;
56893;SDS011;43392;50.078;13.704;2022-07-04T07:13:45;6.67;;;3.00;;
56893;SDS011;43392;50.078;13.704;2022-07-04T07:16:14;7.97;;;3.08;;
56893;SDS011;43392;50.078;13.704;2022-07-04T07:18:41;6.95;;;3.30;;
56893;SDS011;43392;50.078;13.704;2022-07-04T07:21:08;8.52;;;3.28;;
56893;SDS011;43392;50.078;13.704;2022-07-04T07:23:37;7.72;;;3.00;;
56893;SDS011;43392;50.078;13.704;2022-07-04T07:26:04;7.63;;;2.80;;
56893;SDS011;43392;50.078;13.704;2022-07-04T07:28:30;6.93;;;2.55;;
56893;SDS011;43392;50.078;13.704;2022-07-04T07:30:57;5.00;;;2.55;;
56893;SDS011;43392;50.078;13.704;2022-07-04T07:33:25;4.57;;;3.10;;
56893;SDS011;43392;50.078;13.704;2022-07-04T07:35:51;7.30;;;2.60;;
56893;SDS011;43392;50.078;13.704;2022-07-04T07:38:18;5.07;;;2.53;;
56893;SDS011;43392;50.078;13.704;2022-07-04T07:40:44;5.90;;;2.42;;
56893;SDS011;43392;50.078;13.704;2022-07-04T07:43:11;5.78;;;2.58;;
56893;SDS011;43392;50.078;13.704;2022-07-04T07:45:38;4.93;;;2.40;;
56893;SDS011;43392;50.078;13.704;2022-07-04T07:48:04;5.43;;;2.65;;
56893;SDS011;43392;50.078;13.704;2022-07-04T07:50:33;6.07;;;2.53;;
56893;SDS011;43392;50.078;13.704;2022-07-04T07:52:59;3.95;;;2.10;;
56893;SDS011;43392;50.078;13.704;2022-07-04T07:55:26;4.07;;;2.30;;
56893;SDS011;43392;50.078;13.704;2022-07-04T07:57:53;3.75;;;2.10;;
56893;SDS011;43392;50.078;13.704;2022-07-04T08:00:19;6.80;;;2.55;;
56893;SDS011;43392;50.078;13.704;2022-07-04T08:02:46;5.13;;;2.53;;
56893;SDS011;43392;50.078;13.704;2022-07-04T08:05:30;7.32;;;2.58;;
56893;SDS011;43392;50.078;13.704;2022-07-04T08:07:58;5.20;;;2.40;;
56893;SDS011;43392;50.078;13.704;2022-07-04T08:10:25;5.25;;;2.20;;
56893;SDS011;43392;50.078;13.704;2022-07-04T08:12:52;5.18;;;2.25;;
56893;SDS011;43392;50.078;13.704;2022-07-04T08:15:21;4.30;;;2.47;;
56893;SDS011;43392;50.078;13.704;2022-07-04T08:17:47;4.15;;;2.05;;
56893;SDS011;43392;50.078;13.704;2022-07-04T08:20:14;6.30;;;2.33;;
56893;SDS011;43392;50.078;13.704;2022-07-04T08:22:40;7.60;;;2.78;;
56893;SDS011;43392;50.078;13.704;2022-07-04T08:25:09;6.13;;;2.60;;
56893;SDS011;43392;50.078;13.704;2022-07-04T08:27:35;5.75;;;2.75;;
56893;SDS011;43392;50.078;13.704;2022-07-04T08:30:02;10.88;;;2.67;;
56893;SDS011;43392;50.078;13.704;2022-07-04T08:32:31;4.80;;;2.60;;
56893;SDS011;43392;50.078;13.704;2022-07-04T08:34:57;6.10;;;2.78;;
56893;SDS011;43392;50.078;13.704;2022-07-04T08:37:24;7.68;;;3.00;;
56893;SDS011;43392;50.078;13.704;2022-07-04T08:39:51;7.85;;;2.75;;
56893;SDS011;43392;50.078;13.704;2022-07-04T08:42:19;6.38;;;2.65;;
56893;SDS011;43392;50.078;13.704;2022-07-04T08:44:48;5.55;;;2.78;;
56893;SDS011;43392;50.078;13.704;2022-07-04T08:47:17;6.40;;;2.63;;
56893;SDS011;43392;50.078;13.704;2022-07-04T08:49:46;6.68;;;2.70;;
56893;SDS011;43392;50.078;13.704;2022-07-04T08:52:22;7.20;;;2.45;;
56893;SDS011;43392;50.078;13.704;2022-07-04T08:54:57;4.53;;;2.65;;
56893;SDS011;43392;50.078;13.704;2022-07-04T08:57:44;7.55;;;2.83;;
56893;SDS011;43392;50.078;13.704;2022-07-04T09:00:30;5.30;;;2.38;;
56893;SDS011;43392;50.078;13.704;2022-07-04T09:02:58;5.88;;;2.55;;
56893;SDS011;43392;50.078;13.704;2022-07-04T09:07:53;5.57;;;2.70;;
56893;SDS011;43392;50.078;13.704;2022-07-04T09:10:21;5.38;;;2.72;;
56893;SDS011;43392;50.078;13.704;2022-07-04T09:12:50;5.28;;;2.67;;
56893;SDS011;43392;50.078;13.704;2022-07-04T09:15:17;8.50;;;2.85;;
56893;SDS011;43392;50.078;13.704;2022-07-04T09:17:44;5.18;;;2.40;;
56893;SDS011;43392;50.078;13.704;2022-07-04T09:20:12;4.97;;;2.92;;
56893;SDS011;43392;50.078;13.704;2022-07-04T09:22:40;6.93;;;3.05;;
56893;SDS011;43392;50.078;13.704;2022-07-04T09:25:08;6.88;;;3.10;;
56893;SDS011;43392;50.078;13.704;2022-07-04T09:27:38;5.80;;;2.80;;
56893;SDS011;43392;50.078;13.704;2022-07-04T09:30:08;6.72;;;3.30;;
56893;SDS011;43392;50.078;13.704;2022-07-04T09:32:37;9.30;;;3.60;;
56893;SDS011;43392;50.078;13.704;2022-07-04T09:35:05;8.38;;;3.50;;
56893;SDS011;43392;50.078;13.704;2022-07-04T09:37:33;5.75;;;3.10;;
56893;SDS011;43392;50.078;13.704;2022-07-04T09:40:02;5.80;;;3.22;;
56893;SDS011;43392;50.078;13.704;2022-07-04T09:42:36;9.00;;;3.80;;
56893;SDS011;43392;50.078;13.704;2022-07-04T09:45:04;6.50;;;3.30;;
56893;SDS011;43392;50.078;13.704;2022-07-04T09:47:34;9.27;;;3.75;;
56893;SDS011;43392;50.078;13.704;2022-07-04T09:50:02;5.65;;;3.35;;
56893;SDS011;43392;50.078;13.704;2022-07-04T09:52:30;5.95;;;3.83;;
56893;SDS011;43392;50.078;13.704;2022-07-04T09:54:57;9.68;;;3.58;;
56893;SDS011;43392;50.078;13.704;2022-07-04T09:57:25;6.70;;;3.20;;
56893;SDS011;43392;50.078;13.704;2022-07-04T09:59:52;9.48;;;4.00;;
56893;SDS011;43392;50.078;13.704;2022-07-04T10:02:18;12.20;;;4.05;;
56893;SDS011;43392;50.078;13.704;2022-07-04T10:04:47;6.47;;;3.35;;
56893;SDS011;43392;50.078;13.704;2022-07-04T10:07:29;6.70;;;3.50;;
56893;SDS011;43392;50.078;13.704;2022-07-04T10:09:57;8.85;;;3.08;;
56893;SDS011;43392;50.078;13.704;2022-07-04T10:12:27;8.88;;;4.07;;
56893;SDS011;43392;50.078;13.704;2022-07-04T10:14:54;9.48;;;3.67;;
56893;SDS011;43392;50.078;13.704;2022-07-04T10:17:22;6.47;;;3.22;;
56893;SDS011;43392;50.078;13.704;2022-07-04T10:19:50;7.25;;;3.20;;
56893;SDS011;43392;50.078;13.704;2022-07-04T10:22:18;4.82;;;3.00;;
56893;SDS011;43392;50.078;13.704;2022-07-04T10:24:46;6.38;;;3.30;;
56893;SDS011;43392;50.078;13.704;2022-07-04T10:27:13;5.70;;;2.97;;
56893;SDS011;43392;50.078;13.704;2022-07-04T10:29:40;5.60;;;2.95;;
56893;SDS011;43392;50.078;13.704;2022-07-04T10:32:07;5.30;;;3.22;;
56893;SDS011;43392;50.078;13.704;2022-07-04T10:34:38;6.45;;;2.97;;
56893;SDS011;43392;50.078;13.704;2022-07-04T10:37:07;7.65;;;3.17;;
56893;SDS011;43392;50.078;13.704;2022-07-04T10:39:34;8.20;;;3.65;;
56893;SDS011;43392;50.078;13.704;2022-07-04T10:42:01;7.50;;;3.33;;
56893;SDS011;43392;50.078;13.704;2022-07-04T10:44:28;5.82;;;3.83;;
56893;SDS011;43392;50.078;13.704;2022-07-04T10:47:02;6.25;;;3.58;;
56893;SDS011;43392;50.078;13.704;2022-07-04T10:49:29;9.32;;;3.55;;
56893;SDS011;43392;50.078;13.704;2022-07-04T10:52:03;5.80;;;3.38;;
56893;SDS011;43392;50.078;13.704;2022-07-04T10:54:36;7.93;;;3.58;;
56893;SDS011;43392;50.078;13.704;2022-07-04T10:57:09;5.85;;;3.60;;
56893;SDS011;43392;50.078;13.704;2022-07-04T10:59:37;5.90;;;3.03;;
56893;SDS011;43392;50.078;13.704;2022-07-04T11:04:56;10.82;;;3.78;;
56893;SDS011;43392;50.078;13.704;2022-07-04T11:10:32;7.50;;;3.35;;
56893;SDS011;43392;50.078;13.704;2022-07-04T11:13:07;6.10;;;3.70;;
56893;SDS011;43392;50.078;13.704;2022-07-04T11:15:59;5.20;;;3.30;;
56893;SDS011;43392;50.078;13.704;2022-07-04T11:18:27;7.25;;;3.40;;
56893;SDS011;43392;50.078;13.704;2022-07-04T11:20:54;6.25;;;3.53;;
56893;SDS011;43392;50.078;13.704;2022-07-04T11:23:21;5.97;;;3.30;;
56893;SDS011;43392;50.078;13.704;2022-07-04T11:25:51;6.45;;;2.92;;
56893;SDS011;43392;50.078;13.704;2022-07-04T11:28:20;7.63;;;3.28;;
56893;SDS011;43392;50.078;13.704;2022-07-04T11:30:48;6.07;;;3.25;;
56893;SDS011;43392;50.078;13.704;2022-07-04T11:33:16;5.88;;;3.28;;
56893;SDS011;43392;50.078;13.704;2022-07-04T11:35:44;4.63;;;2.97;;
56893;SDS011;43392;50.078;13.704;2022-07-04T11:38:24;5.28;;;2.40;;
56893;SDS011;43392;50.078;13.704;2022-07-04T11:40:52;4.28;;;2.40;;
56893;SDS011;43392;50.078;13.704;2022-07-04T11:43:36;5.20;;;2.65;;
56893;SDS011;43392;50.078;13.704;2022-07-04T11:46:20;5.60;;;2.50;;
56893;SDS011;43392;50.078;13.704;2022-07-04T11:48:46;5.32;;;2.58;;
56893;SDS011;43392;50.078;13.704;2022-07-04T11:51:16;5.82;;;2.70;;
56893;SDS011;43392;50.078;13.704;2022-07-04T11:53:43;6.13;;;2.67;;
56893;SDS011;43392;50.078;13.704;2022-07-04T11:56:11;3.55;;;2.50;;
56893;SDS011;43392;50.078;13.704;2022-07-04T11:58:38;4.63;;;2.70;;
56893;SDS011;43392;50.078;13.704;2022-07-04T12:01:05;7.50;;;2.70;;
56893;SDS011;43392;50.078;13.704;2022-07-04T12:03:32;8.45;;;2.67;;
56893;SDS011;43392;50.078;13.704;2022-07-04T12:06:01;3.42;;;2.22;;
56893;SDS011;43392;50.078;13.704;2022-07-04T12:10:55;5.55;;;2.70;;
56893;SDS011;43392;50.078;13.704;2022-07-04T12:13:23;5.43;;;2.80;;
56893;SDS011;43392;50.078;13.704;2022-07-04T12:15:50;3.88;;;2.58;;
56893;SDS011;43392;50.078;13.704;2022-07-04T12:18:18;4.53;;;2.47;;
56893;SDS011;43392;50.078;13.704;2022-07-04T12:20:47;4.22;;;2.40;;
56893;SDS011;43392;50.078;13.704;2022-07-04T12:23:15;6.05;;;2.67;;
56893;SDS011;43392;50.078;13.704;2022-07-04T12:25:45;5.13;;;2.53;;
56893;SDS011;43392;50.078;13.704;2022-07-04T12:28:13;6.00;;;2.35;;
56893;SDS011;43392;50.078;13.704;2022-07-04T12:30:49;6.50;;;2.45;;
56893;SDS011;43392;50.078;13.704;2022-07-04T12:33:18;5.20;;;2.88;;
56893;SDS011;43392;50.078;13.704;2022-07-04T12:35:46;4.38;;;2.40;;
56893;SDS011;43392;50.078;13.704;2022-07-04T12:38:14;5.80;;;2.40;;
56893;SDS011;43392;50.078;13.704;2022-07-04T12:40:49;6.95;;;2.50;;
56893;SDS011;43392;50.078;13.704;2022-07-04T12:43:17;5.68;;;2.92;;
56893;SDS011;43392;50.078;13.704;2022-07-04T12:45:44;6.28;;;2.40;;
56893;SDS011;43392;50.078;13.704;2022-07-04T12:48:17;5.70;;;2.75;;
56893;SDS011;43392;50.078;13.704;2022-07-04T12:50:45;6.32;;;2.85;;
56893;SDS011;43392;50.078;13.704;2022-07-04T12:53:12;3.80;;;2.35;;
56893;SDS011;43392;50.078;13.704;2022-07-04T12:55:40;5.38;;;2.45;;
56893;SDS011;43392;50.078;13.704;2022-07-04T12:58:07;4.38;;;2.05;;
56893;SDS011;43392;50.078;13.704;2022-07-04T13:00:35;5.13;;;2.42;;
56893;SDS011;43392;50.078;13.704;2022-07-04T13:03:01;4.35;;;2.40;;
56893;SDS011;43392;50.078;13.704;2022-07-04T13:05:30;3.67;;;2.10;;
56893;SDS011;43392;50.078;13.704;2022-07-04T13:10:25;6.00;;;2.40;;
56893;SDS011;43392;50.078;13.704;2022-07-04T13:12:52;5.05;;;2.00;;
56893;SDS011;43392;50.078;13.704;2022-07-04T13:15:18;3.05;;;1.88;;
56893;SDS011;43392;50.078;13.704;2022-07-04T13:17:45;5.50;;;2.10;;
56893;SDS011;43392;50.078;13.704;2022-07-04T13:20:12;4.90;;;2.08;;
56893;SDS011;43392;50.078;13.704;2022-07-04T13:22:40;4.65;;;2.00;;
56893;SDS011;43392;50.078;13.704;2022-07-04T13:25:07;4.20;;;1.80;;
56893;SDS011;43392;50.078;13.704;2022-07-04T13:27:34;2.40;;;1.80;;
56893;SDS011;43392;50.078;13.704;2022-07-04T13:30:00;4.55;;;1.55;;
56893;SDS011;43392;50.078;13.704;2022-07-04T13:32:27;3.63;;;1.70;;
56893;SDS011;43392;50.078;13.704;2022-07-04T13:34:54;4.22;;;1.80;;
56893;SDS011;43392;50.078;13.704;2022-07-04T13:37:21;4.95;;;1.92;;
56893;SDS011;43392;50.078;13.704;2022-07-04T13:39:49;3.25;;;1.90;;
56893;SDS011;43392;50.078;13.704;2022-07-04T13:42:15;5.05;;;2.10;;
56893;SDS011;43392;50.078;13.704;2022-07-04T13:45:03;5.05;;;2.17;;
56893;SDS011;43392;50.078;13.704;2022-07-04T13:47:30;4.85;;;1.75;;
56893;SDS011;43392;50.078;13.704;2022-07-04T13:49:57;3.38;;;1.95;;
56893;SDS011;43392;50.078;13.704;2022-07-04T13:52:24;6.70;;;2.20;;
56893;SDS011;43392;50.078;13.704;2022-07-04T13:54:52;4.95;;;1.90;;
56893;SDS011;43392;50.078;13.704;2022-07-04T13:57:18;5.18;;;1.85;;
56893;SDS011;43392;50.078;13.704;2022-07-04T13:59:45;3.65;;;1.60;;
56893;SDS011;43392;50.078;13.704;2022-07-04T14:02:12;3.47;;;1.58;;
56893;SDS011;43392;50.078;13.704;2022-07-04T14:04:38;6.65;;;2.10;;
56893;SDS011;43392;50.078;13.704;2022-07-04T14:07:05;4.10;;;1.88;;
56893;SDS011;43392;50.078;13.704;2022-07-04T14:09:31;3.80;;;1.90;;
56893;SDS011;43392;50.078;13.704;2022-07-04T14:11:59;3.25;;;2.00;;
56893;SDS011;43392;50.078;13.704;2022-07-04T14:14:26;6.07;;;1.77;;
56893;SDS011;43392;50.078;13.704;2022-07-04T14:16:53;4.55;;;2.05;;
56893;SDS011;43392;50.078;13.704;2022-07-04T14:19:19;3.92;;;1.90;;
56893;SDS011;43392;50.078;13.704;2022-07-04T14:21:46;3.95;;;2.00;;
56893;SDS011;43392;50.078;13.704;2022-07-04T14:24:13;3.10;;;1.90;;
56893;SDS011;43392;50.078;13.704;2022-07-04T14:26:41;4.35;;;1.90;;
56893;SDS011;43392;50.078;13.704;2022-07-04T14:29:09;6.03;;;2.10;;
56893;SDS011;43392;50.078;13.704;2022-07-04T14:31:36;3.65;;;2.10;;
56893;SDS011;43392;50.078;13.704;2022-07-04T14:34:02;5.80;;;1.77;;
56893;SDS011;43392;50.078;13.704;2022-07-04T14:36:31;5.88;;;1.90;;
56893;SDS011;43392;50.078;13.704;2022-07-04T14:38:57;6.25;;;1.80;;
56893;SDS011;43392;50.078;13.704;2022-07-04T14:41:26;4.25;;;1.80;;
56893;SDS011;43392;50.078;13.704;2022-07-04T14:43:53;3.60;;;1.60;;
56893;SDS011;43392;50.078;13.704;2022-07-04T14:46:21;4.15;;;1.70;;
56893;SDS011;43392;50.078;13.704;2022-07-04T14:48:48;3.45;;;1.70;;
56893;SDS011;43392;50.078;13.704;2022-07-04T14:51:15;5.40;;;1.70;;